createdAt,value
2019-01-19T00:01:31.072Z,72.60
2019-01-19T00:04:14.163Z,72.80
2019-01-19T00:06:56.814Z,73.10
2019-01-19T00:09:42.026Z,73.30
2019-01-19T00:12:27.424Z,73.50
2019-01-19T00:15:10.995Z,73.50
2019-01-19T00:17:54.678Z,73.40
2019-01-19T00:20:37.482Z,73.40
2019-01-19T00:23:20.547Z,73.40
2019-01-19T00:26:03.358Z,73.50
2019-01-19T00:28:45.870Z,73.80
2019-01-19T00:31:28.589Z,74.00
2019-01-19T00:34:12.155Z,74.30
2019-01-19T00:36:55.614Z,74.40
2019-01-19T00:39:40.004Z,74.30
2019-01-19T00:42:23.295Z,74.20
2019-01-19T00:45:06.543Z,73.90
2019-01-19T00:47:49.917Z,73.80
2019-01-19T00:50:34.053Z,73.90
2019-01-19T00:53:18.966Z,73.90
2019-01-19T00:56:03.733Z,74.00
2019-01-19T00:58:46.624Z,74.10
2019-01-19T01:01:30.031Z,74.20
2019-01-19T01:04:16.605Z,74.40
2019-01-19T01:07:00.006Z,74.60
2019-01-19T01:09:45.467Z,74.80
2019-01-19T01:12:29.063Z,75.00
2019-01-19T01:15:13.981Z,75.20
2019-01-19T01:17:56.676Z,75.20
2019-01-19T01:20:41.170Z,75.20
2019-01-19T01:23:24.612Z,75.30
2019-01-19T01:26:09.900Z,75.70
2019-01-19T01:28:52.618Z,76.40
2019-01-19T01:31:37.776Z,76.90
2019-01-19T01:34:23.161Z,77.20
2019-01-19T01:37:06.750Z,77.30
2019-01-19T01:39:50.325Z,77.30
2019-01-19T01:42:33.809Z,77.40
2019-01-19T01:45:17.260Z,77.30
2019-01-19T01:48:00.017Z,77.20
2019-01-19T01:50:43.402Z,77.20
2019-01-19T01:53:27.216Z,77.70
2019-01-19T01:56:10.629Z,78.30
2019-01-19T01:58:53.816Z,78.60
2019-01-19T02:01:36.933Z,78.80
2019-01-19T02:04:20.215Z,79.10
2019-01-19T02:07:04.430Z,79.60
2019-01-19T02:09:48.678Z,79.80
2019-01-19T02:12:31.670Z,80.00
2019-01-19T02:15:14.577Z,80.20
2019-01-19T02:17:58.568Z,80.20
2019-01-19T02:20:41.972Z,80.00
2019-01-19T02:23:25.403Z,80.00
2019-01-19T02:26:10.706Z,79.90
2019-01-19T02:28:55.135Z,79.70
2019-01-19T02:31:37.846Z,79.50
2019-01-19T02:34:21.163Z,79.60
2019-01-19T02:37:04.613Z,79.70
2019-01-19T02:39:49.039Z,79.90
2019-01-19T02:42:32.112Z,80.00
2019-01-19T02:45:15.136Z,80.00
2019-01-19T02:47:57.985Z,80.00
2019-01-19T02:50:40.913Z,80.20
2019-01-19T02:53:26.093Z,80.20
2019-01-19T02:56:11.004Z,80.40
2019-01-19T02:58:57.728Z,80.50
2019-01-19T03:01:40.314Z,80.80
2019-01-19T03:04:26.009Z,81.10
2019-01-19T03:07:08.877Z,81.40
2019-01-19T03:09:52.121Z,82.00
2019-01-19T03:12:34.827Z,82.40
2019-01-19T03:15:17.397Z,82.60
2019-01-19T03:18:01.196Z,83.00
2019-01-19T03:20:43.946Z,83.40
2019-01-19T03:23:26.847Z,83.60
2019-01-19T03:26:11.398Z,83.80
2019-01-19T03:28:54.868Z,84.10
2019-01-19T03:34:22.704Z,84.20
2019-01-19T03:37:05.437Z,84.20
2019-01-19T03:39:48.683Z,84.30
2019-01-19T03:42:31.377Z,84.40
2019-01-19T03:45:14.678Z,84.30
2019-01-19T03:47:58.033Z,84.40
2019-01-19T03:50:41.505Z,84.40
2019-01-19T03:53:27.775Z,84.20
2019-01-19T03:56:11.471Z,84.00
2019-01-19T03:58:54.305Z,83.90
2019-01-19T04:01:39.772Z,83.70
2019-01-19T04:04:49.203Z,83.60
2019-01-19T04:07:31.779Z,83.70
2019-01-19T04:10:14.434Z,83.20
2019-01-19T04:12:57.334Z,83.00
2019-01-19T04:15:40.682Z,83.10
2019-01-19T04:18:25.143Z,83.00
2019-01-19T04:21:08.001Z,83.10
2019-01-19T04:23:52.298Z,83.00
2019-01-19T04:26:35.456Z,83.20
2019-01-19T04:29:18.501Z,83.40
2019-01-19T04:32:01.788Z,83.80
2019-01-19T04:34:44.692Z,84.10
2019-01-19T04:37:28.182Z,84.40
2019-01-19T04:40:12.439Z,84.60
2019-01-19T04:42:55.566Z,84.80
2019-01-19T04:45:38.180Z,84.90
2019-01-19T04:48:22.636Z,84.90
2019-01-19T04:51:06.540Z,85.10
2019-01-19T04:53:51.581Z,85.10
2019-01-19T04:56:35.034Z,85.20
2019-01-19T04:59:17.835Z,85.50
2019-01-19T05:02:00.877Z,85.70
2019-01-19T05:04:45.123Z,86.10
2019-01-19T05:07:28.510Z,86.30
2019-01-19T05:10:11.904Z,86.60
2019-01-19T05:12:56.662Z,86.70
2019-01-19T05:15:39.592Z,86.90
2019-01-19T05:18:22.966Z,86.90
2019-01-19T05:21:06.701Z,87.10
2019-01-19T05:23:49.628Z,87.10
2019-01-19T05:26:32.840Z,87.10
2019-01-19T05:29:15.772Z,87.10
2019-01-19T05:31:58.476Z,87.20
2019-01-19T05:34:43.495Z,87.40
2019-01-19T05:37:26.696Z,87.30
2019-01-19T05:40:09.386Z,87.40
2019-01-19T05:42:52.892Z,87.40
2019-01-19T05:45:36.089Z,87.40
2019-01-19T05:48:19.374Z,87.40
2019-01-19T05:51:04.264Z,87.10
2019-01-19T05:53:46.907Z,87.10
2019-01-19T05:56:31.332Z,87.10
2019-01-19T05:59:14.193Z,87.20
2019-01-19T06:01:57.425Z,87.10
2019-01-19T06:04:40.397Z,87.00
2019-01-19T06:07:23.596Z,87.00
2019-01-19T06:10:06.593Z,86.90
2019-01-19T06:12:49.383Z,86.80
2019-01-19T06:15:33.301Z,86.90
2019-01-19T06:18:16.210Z,87.00
2019-01-19T06:21:00.102Z,86.90
2019-01-19T06:23:42.908Z,87.20
2019-01-19T06:26:25.919Z,87.40
2019-01-19T06:29:09.379Z,87.50
2019-01-19T06:31:53.028Z,87.50
2019-01-19T06:34:38.229Z,87.60
2019-01-19T06:37:21.261Z,87.30
2019-01-19T06:40:04.423Z,86.90
2019-01-19T06:42:47.279Z,86.70
2019-01-19T06:45:29.756Z,86.50
2019-01-19T06:48:12.436Z,86.50
2019-01-19T06:50:57.003Z,86.40
2019-01-19T06:53:42.156Z,86.70
2019-01-19T06:56:27.384Z,86.30
2019-01-19T06:59:17.316Z,85.90
2019-01-19T07:01:56.584Z,85.50
2019-01-19T07:04:39.642Z,85.10
2019-01-19T07:07:24.637Z,84.80
2019-01-19T07:10:09.682Z,84.40
2019-01-19T07:12:53.064Z,84.20
2019-01-19T07:15:35.602Z,84.10
2019-01-19T07:18:21.135Z,83.60
2019-01-19T07:21:04.066Z,83.00
2019-01-19T07:23:48.209Z,82.40
2019-01-19T07:26:32.039Z,81.90
2019-01-19T07:29:17.136Z,81.50
2019-01-19T07:32:02.572Z,81.40
2019-01-19T07:34:45.168Z,81.10
2019-01-19T07:37:29.235Z,80.50
2019-01-19T07:40:11.914Z,80.40
2019-01-19T07:43:01.271Z,80.10
2019-01-19T07:46:06.311Z,79.70
2019-01-19T07:48:49.309Z,79.10
2019-01-19T07:51:32.112Z,78.40
2019-01-19T07:54:15.999Z,77.20
2019-01-19T07:57:02.516Z,76.70
2019-01-19T07:59:45.721Z,75.00
2019-01-19T08:02:28.736Z,74.30
2019-01-19T08:05:12.223Z,73.90
2019-01-19T08:07:55.178Z,72.80
2019-01-19T08:10:38.320Z,71.40
2019-01-19T08:13:21.047Z,70.00
2019-01-19T08:16:03.988Z,68.70
2019-01-19T08:21:29.442Z,66.80
2019-01-19T08:24:12.296Z,66.00
2019-01-19T08:26:55.649Z,64.30
2019-01-19T08:29:39.264Z,62.50
2019-01-19T08:32:23.182Z,58.80
2019-01-19T08:35:07.961Z,58.40
2019-01-19T08:37:50.869Z,55.40
2019-01-19T08:40:33.626Z,52.70
2019-01-19T08:46:21.276Z,51.10
2019-01-19T08:49:06.600Z,49.10
2019-01-19T08:51:49.371Z,46.50
2019-01-19T08:54:34.384Z,46.40
2019-01-19T08:57:17.740Z,45.90
2019-01-19T09:00:00.688Z,45.90
2019-01-19T09:02:46.282Z,44.90
2019-01-19T09:05:29.333Z,44.40
2019-01-19T09:08:12.901Z,43.80
2019-01-19T09:10:55.489Z,42.90
2019-01-19T09:13:39.578Z,42.10
2019-01-19T09:16:24.665Z,40.50
2019-01-19T09:18:56.185Z,38.30
2019-01-19T09:21:46.614Z,36.00
2019-01-19T09:24:30.346Z,35.90
2019-01-19T09:27:17.005Z,36.20
2019-01-19T09:30:00.238Z,34.80
2019-01-19T09:32:43.259Z,33.40
2019-01-19T09:35:25.954Z,31.70
2019-01-19T09:38:10.585Z,31.30
2019-01-19T09:40:53.689Z,31.70
2019-01-19T09:43:36.823Z,32.60
2019-01-19T09:46:20.707Z,34.20
2019-01-19T09:49:03.996Z,35.90
2019-01-19T09:51:48.361Z,37.10
2019-01-19T09:54:33.474Z,38.00
2019-01-19T09:57:17.529Z,38.60
2019-01-19T10:00:02.213Z,39.40
2019-01-19T10:02:47.461Z,40.00
2019-01-19T10:05:33.260Z,40.10
2019-01-19T10:08:15.880Z,40.30
2019-01-19T10:11:00.993Z,40.60
2019-01-19T10:13:44.158Z,39.70
2019-01-19T10:16:28.780Z,38.00
2019-01-19T10:19:11.638Z,37.60
2019-01-19T10:21:55.226Z,36.00
2019-01-19T10:24:38.160Z,32.90
2019-01-19T10:27:23.685Z,30.60
2019-01-19T10:30:06.270Z,29.00
2019-01-19T10:32:51.207Z,28.70
2019-01-19T10:35:36.410Z,29.30
2019-01-19T10:38:19.960Z,29.80
2019-01-19T10:41:02.685Z,28.70
2019-01-19T10:43:47.484Z,27.40
2019-01-19T10:46:30.937Z,27.00
2019-01-19T10:49:16.085Z,27.60
2019-01-19T10:51:59.610Z,28.50
2019-01-19T10:54:44.498Z,29.70
2019-01-19T10:57:28.226Z,31.00
2019-01-19T11:00:11.407Z,33.70
2019-01-19T11:02:54.187Z,36.40
2019-01-19T11:05:39.352Z,39.20
2019-01-19T11:08:24.028Z,42.70
2019-01-19T11:11:10.964Z,43.30
2019-01-19T11:13:54.537Z,44.50
2019-01-19T11:16:39.167Z,45.60
2019-01-19T11:19:24.376Z,46.30
2019-01-19T11:22:09.318Z,48.10
2019-01-19T11:24:52.682Z,52.70
2019-01-19T11:27:36.118Z,50.00
2019-01-19T11:30:19.001Z,50.30
2019-01-19T11:33:01.885Z,51.00
2019-01-19T11:35:45.803Z,52.20
2019-01-19T11:38:31.492Z,52.90
2019-01-19T11:41:14.623Z,53.40
2019-01-19T11:43:57.861Z,54.30
2019-01-19T11:46:41.882Z,54.00
2019-01-19T11:49:27.483Z,54.70
2019-01-19T11:52:10.501Z,55.50
2019-01-19T11:54:53.909Z,56.30
2019-01-19T11:57:36.949Z,56.80
2019-01-19T12:00:19.456Z,56.80
2019-01-19T12:03:03.364Z,57.00
2019-01-19T12:05:46.820Z,56.90
2019-01-19T12:08:30.049Z,56.50
2019-01-19T12:11:12.971Z,56.90
2019-01-19T12:13:56.693Z,57.20
2019-01-19T12:16:39.601Z,57.10
2019-01-19T12:19:22.519Z,57.30
2019-01-19T12:22:05.475Z,58.00
2019-01-19T12:24:48.098Z,58.00
2019-01-19T12:27:33.111Z,58.40
2019-01-19T12:30:19.369Z,58.40
2019-01-19T12:33:02.819Z,58.60
2019-01-19T12:35:46.402Z,60.00
2019-01-19T12:38:29.726Z,59.90
2019-01-19T12:41:13.059Z,59.90
2019-01-19T12:43:56.101Z,60.50
2019-01-19T12:46:39.508Z,60.70
2019-01-19T12:49:24.814Z,61.20
2019-01-19T12:52:09.715Z,61.30
2019-01-19T12:54:54.725Z,63.30
2019-01-19T12:57:39.510Z,62.50
2019-01-19T13:00:22.784Z,61.10
2019-01-19T13:03:06.411Z,60.40
2019-01-19T13:05:49.150Z,61.20
2019-01-19T13:08:34.519Z,59.80
2019-01-19T13:11:18.166Z,60.70
2019-01-19T13:14:03.420Z,61.50
2019-01-19T13:16:46.366Z,61.80
2019-01-19T13:19:27.972Z,62.10
2019-01-19T13:22:11.242Z,61.90
2019-01-19T13:24:54.371Z,62.00
2019-01-19T13:27:39.340Z,62.30
2019-01-19T13:30:22.056Z,62.70
2019-01-19T13:33:05.361Z,61.90
2019-01-19T13:35:48.913Z,62.30
2019-01-19T13:38:31.828Z,62.80
2019-01-19T13:41:14.810Z,63.50
2019-01-19T13:43:57.999Z,63.40
2019-01-19T13:46:41.490Z,62.90
2019-01-19T13:49:24.534Z,63.20
2019-01-19T13:52:07.118Z,63.70
2019-01-19T13:54:53.752Z,64.00
2019-01-19T13:57:36.457Z,64.50
2019-01-19T14:00:20.975Z,65.60
2019-01-19T14:03:04.476Z,65.60
2019-01-19T14:05:49.216Z,66.20
2019-01-19T14:08:32.675Z,66.70
2019-01-19T14:11:17.659Z,67.10
2019-01-19T14:14:01.022Z,67.70
2019-01-19T14:16:43.631Z,67.50
2019-01-19T14:19:27.764Z,68.00
2019-01-19T14:22:12.597Z,68.70
2019-01-19T14:24:56.626Z,68.20
2019-01-19T14:27:42.224Z,68.80
2019-01-19T14:30:24.843Z,69.90
2019-01-19T14:33:07.818Z,70.30
2019-01-19T14:35:52.042Z,71.00
2019-01-19T14:38:37.515Z,71.50
2019-01-19T14:41:20.671Z,72.10
2019-01-19T14:44:03.613Z,72.00
2019-01-19T14:46:46.468Z,72.10
2019-01-19T14:49:29.248Z,72.40
2019-01-19T14:52:13.244Z,72.70
2019-01-19T14:54:58.402Z,73.10
2019-01-19T14:57:42.101Z,73.50
2019-01-19T15:00:25.766Z,73.50
2019-01-19T15:03:08.639Z,74.00
2019-01-19T15:05:54.012Z,73.70
2019-01-19T15:08:38.992Z,73.90
2019-01-19T15:11:23.938Z,74.30
2019-01-19T15:14:06.842Z,75.00
2019-01-19T15:16:51.557Z,75.00
2019-01-19T15:19:34.305Z,75.10
2019-01-19T15:22:17.276Z,75.40
2019-01-19T15:25:00.263Z,75.10
2019-01-19T15:27:43.729Z,75.30
2019-01-19T15:30:27.171Z,75.30
2019-01-19T15:33:12.255Z,75.20
2019-01-19T15:35:55.570Z,75.50
2019-01-19T15:38:38.537Z,75.70
2019-01-19T15:41:21.233Z,76.20
2019-01-19T15:44:07.077Z,76.60
2019-01-19T15:46:52.190Z,76.50
2019-01-19T15:49:39.001Z,76.70
2019-01-19T15:52:25.229Z,76.80
2019-01-19T15:55:08.236Z,77.10
2019-01-19T15:57:51.053Z,77.10
2019-01-19T16:00:34.080Z,77.10
2019-01-19T16:03:16.619Z,77.80
2019-01-19T16:06:01.834Z,78.40
2019-01-19T16:08:45.169Z,78.40
2019-01-19T16:11:28.096Z,78.30
2019-01-19T16:14:11.514Z,78.80
2019-01-19T16:17:21.019Z,78.50
2019-01-19T16:20:04.014Z,78.20
2019-01-19T16:22:49.555Z,78.20
2019-01-19T16:25:32.295Z,78.80
2019-01-19T16:28:17.064Z,78.80
2019-01-19T16:31:02.356Z,79.30
2019-01-19T16:33:45.797Z,79.40
2019-01-19T16:36:28.631Z,80.00
2019-01-19T16:39:13.447Z,80.20
2019-01-19T16:41:58.608Z,80.60
2019-01-19T16:44:43.360Z,80.90
2019-01-19T16:47:26.734Z,81.30
2019-01-19T16:50:10.561Z,81.30
2019-01-19T16:52:53.588Z,81.40
2019-01-19T16:55:39.576Z,81.90
2019-01-19T16:58:25.466Z,81.60
2019-01-19T17:01:09.006Z,81.50
2019-01-19T17:03:52.865Z,81.60
2019-01-19T17:06:37.826Z,81.90
2019-01-19T17:09:20.518Z,82.50
2019-01-19T17:12:05.478Z,82.80
2019-01-19T17:14:48.225Z,83.30
2019-01-19T17:17:33.616Z,83.40
2019-01-19T17:20:16.325Z,83.70
2019-01-19T17:23:01.702Z,83.90
2019-01-19T17:25:44.969Z,84.20
2019-01-19T17:28:28.152Z,84.20
2019-01-19T17:31:11.366Z,84.10
2019-01-19T17:33:58.194Z,84.50
2019-01-19T17:36:41.266Z,84.50
2019-01-19T17:39:24.714Z,84.80
2019-01-19T17:42:09.157Z,84.90
2019-01-19T17:44:53.546Z,84.80
2019-01-19T17:47:36.389Z,85.10
2019-01-19T17:50:19.711Z,85.30
2019-01-19T17:53:02.439Z,85.50
2019-01-19T17:55:45.474Z,85.60
2019-01-19T17:58:29.009Z,85.50
2019-01-19T18:01:14.523Z,85.50
2019-01-19T18:03:58.096Z,85.70
2019-01-19T18:06:40.786Z,86.00
2019-01-19T18:09:24.088Z,86.00
2019-01-19T18:12:07.190Z,86.00
2019-01-19T18:14:50.128Z,86.20
2019-01-19T18:17:33.200Z,86.30
2019-01-19T18:20:16.134Z,86.30
2019-01-19T18:22:58.846Z,86.20
2019-01-19T18:25:42.973Z,86.30
2019-01-19T18:28:26.705Z,86.00
2019-01-19T18:31:10.926Z,86.10
2019-01-19T18:33:53.910Z,86.10
2019-01-19T18:36:37.547Z,86.10
2019-01-19T18:39:20.767Z,86.10
2019-01-19T18:42:04.040Z,85.90
2019-01-19T18:44:48.917Z,86.10
2019-01-19T18:47:31.829Z,86.50
2019-01-19T18:50:15.024Z,86.40
2019-01-19T18:52:57.873Z,86.50
2019-01-19T18:55:40.591Z,86.80
2019-01-19T18:58:23.176Z,86.70
2019-01-19T19:01:05.895Z,87.00
2019-01-19T19:03:49.310Z,87.30
2019-01-19T19:06:31.970Z,87.50
2019-01-19T19:09:15.435Z,87.70
2019-01-19T19:11:58.870Z,87.80
2019-01-19T19:14:41.982Z,88.20
2019-01-19T19:17:27.089Z,88.20
2019-01-19T19:20:13.760Z,88.40
2019-01-19T19:22:57.429Z,88.50
2019-01-19T19:25:41.231Z,89.00
2019-01-19T19:28:26.025Z,89.50
2019-01-19T19:31:08.960Z,89.60
2019-01-19T19:33:52.703Z,90.00
2019-01-19T19:36:35.398Z,89.90
2019-01-19T19:39:21.762Z,90.30
2019-01-19T19:42:05.335Z,90.40
2019-01-19T19:44:48.311Z,90.40
2019-01-19T19:47:31.567Z,90.60
2019-01-19T19:50:14.508Z,90.60
2019-01-19T19:52:57.162Z,90.60
2019-01-19T19:55:41.814Z,90.70
2019-01-19T19:58:28.659Z,90.70
2019-01-19T20:01:13.298Z,90.80
2019-01-19T20:03:56.810Z,90.70
2019-01-19T20:06:40.180Z,90.80
2019-01-19T20:09:24.092Z,90.70
2019-01-19T20:12:07.921Z,90.90
2019-01-19T20:14:51.296Z,91.00
2019-01-19T20:17:34.399Z,91.00
2019-01-19T20:20:17.747Z,91.00
2019-01-19T20:23:02.475Z,91.10
2019-01-19T20:25:45.820Z,91.20
2019-01-19T20:28:28.449Z,91.30
2019-01-19T20:31:11.791Z,91.30
2019-01-19T20:33:57.024Z,91.30
2019-01-19T20:36:40.394Z,91.30
2019-01-19T20:39:23.101Z,91.40
2019-01-19T20:42:06.645Z,91.40
2019-01-19T20:44:49.716Z,91.60
2019-01-19T20:47:34.099Z,91.70
2019-01-19T20:50:19.577Z,91.70
2019-01-19T20:53:02.525Z,91.70
2019-01-19T20:55:46.576Z,91.70
2019-01-19T20:58:29.445Z,91.80
2019-01-19T21:01:12.557Z,92.00
2019-01-19T21:03:56.422Z,92.00
2019-01-19T21:06:39.068Z,92.00
2019-01-19T21:09:22.297Z,92.10
2019-01-19T21:12:04.924Z,92.10
2019-01-19T21:14:50.568Z,92.30
2019-01-19T21:17:33.659Z,92.30
2019-01-19T21:20:17.045Z,92.30
2019-01-19T21:23:00.242Z,92.40
2019-01-19T21:25:45.756Z,92.40
2019-01-19T21:28:29.021Z,92.50
2019-01-19T21:31:12.519Z,92.60
2019-01-19T21:33:57.483Z,92.70
2019-01-19T21:36:41.280Z,92.60
2019-01-19T21:39:23.997Z,92.60
2019-01-19T21:42:07.444Z,92.70
2019-01-19T21:44:50.604Z,92.70
2019-01-19T21:47:33.243Z,92.70
2019-01-19T21:50:18.385Z,92.70
2019-01-19T21:53:01.820Z,92.80
2019-01-19T21:55:44.987Z,92.80
2019-01-19T21:58:28.443Z,92.80
2019-01-19T22:01:13.915Z,92.90
2019-01-19T22:03:56.941Z,92.90
2019-01-19T22:09:30.585Z,92.90
2019-01-19T22:12:15.528Z,92.80
2019-01-19T22:14:58.881Z,92.90
2019-01-19T22:17:43.570Z,92.80
2019-01-19T22:20:26.413Z,92.80
2019-01-19T22:23:09.761Z,92.90
2019-01-19T22:25:53.244Z,93.00
2019-01-19T22:28:37.347Z,93.00
2019-01-19T22:31:20.731Z,93.20
2019-01-19T22:34:05.303Z,93.20
2019-01-19T22:36:49.254Z,93.30
2019-01-19T22:39:32.685Z,93.10
2019-01-19T22:42:15.710Z,93.20
2019-01-19T22:44:59.160Z,93.20
2019-01-19T22:47:42.901Z,93.20
2019-01-19T22:50:26.242Z,93.30
2019-01-19T22:53:09.132Z,93.30
2019-01-19T22:55:54.242Z,93.30
2019-01-19T22:58:38.074Z,93.20
2019-01-19T23:01:21.346Z,93.20
2019-01-19T23:04:04.191Z,93.10
2019-01-19T23:06:48.318Z,93.30
2019-01-19T23:09:31.189Z,93.30
2019-01-19T23:12:14.178Z,93.40
2019-01-19T23:14:57.337Z,93.40
2019-01-19T23:17:40.569Z,93.20
2019-01-19T23:20:24.066Z,93.20
2019-01-19T23:23:08.816Z,93.20
2019-01-19T23:25:52.352Z,93.00
2019-01-19T23:28:35.666Z,93.10
2019-01-19T23:31:18.826Z,93.20
2019-01-19T23:34:02.082Z,93.20
2019-01-19T23:36:44.935Z,93.30
2019-01-19T23:39:28.424Z,93.20
2019-01-19T23:42:11.439Z,93.20
2019-01-19T23:44:54.183Z,93.30
2019-01-19T23:47:36.849Z,93.30
2019-01-19T23:50:20.045Z,93.30
2019-01-19T23:53:03.532Z,93.30
2019-01-19T23:55:46.606Z,93.30
2019-01-19T23:58:29.359Z,93.40
